sensor_id;sensor_type;location;lat;lon;timestamp;temperature;humidity
37410;DHT22;23275;48.914;12.566;2023-06-10T00:01:24;15.60;99.90
37410;DHT22;23275;48.914;12.566;2023-06-10T00:03:50;15.60;99.90
37410;DHT22;23275;48.914;12.566;2023-06-10T00:06:17;15.60;99.90
37410;DHT22;23275;48.914;12.566;2023-06-10T00:08:43;15.50;99.90
37410;DHT22;23275;48.914;12.566;2023-06-10T00:11:08;15.50;99.90
37410;DHT22;23275;48.914;12.566;2023-06-10T00:13:34;15.40;99.90
37410;DHT22;23275;48.914;12.566;2023-06-10T00:15:59;15.20;99.90
37410;DHT22;23275;48.914;12.566;2023-06-10T00:18:25;15.10;99.90
37410;DHT22;23275;48.914;12.566;2023-06-10T00:20:52;15.10;99.90
37410;DHT22;23275;48.914;12.566;2023-06-10T00:23:21;15.00;99.90
37410;DHT22;23275;48.914;12.566;2023-06-10T00:25:46;15.10;99.90
37410;DHT22;23275;48.914;12.566;2023-06-10T00:28:12;15.00;99.90
37410;DHT22;23275;48.914;12.566;2023-06-10T00:30:38;15.00;99.90
37410;DHT22;23275;48.914;12.566;2023-06-10T00:33:04;15.10;99.90
37410;DHT22;23275;48.914;12.566;2023-06-10T00:35:30;15.10;99.90
37410;DHT22;23275;48.914;12.566;2023-06-10T00:37:55;15.20;99.90
37410;DHT22;23275;48.914;12.566;2023-06-10T00:40:21;15.20;99.90
37410;DHT22;23275;48.914;12.566;2023-06-10T00:42:46;15.20;99.90
37410;DHT22;23275;48.914;12.566;2023-06-10T00:45:12;15.20;99.90
37410;DHT22;23275;48.914;12.566;2023-06-10T00:47:38;15.20;99.90
37410;DHT22;23275;48.914;12.566;2023-06-10T00:50:05;15.10;99.90
37410;DHT22;23275;48.914;12.566;2023-06-10T00:52:31;15.10;99.90
37410;DHT22;23275;48.914;12.566;2023-06-10T00:54:57;15.00;99.90
37410;DHT22;23275;48.914;12.566;2023-06-10T00:57:24;14.80;99.90
37410;DHT22;23275;48.914;12.566;2023-06-10T00:59:51;14.70;99.90
37410;DHT22;23275;48.914;12.566;2023-06-10T01:02:16;14.70;99.90
37410;DHT22;23275;48.914;12.566;2023-06-10T01:04:42;14.60;99.90
37410;DHT22;23275;48.914;12.566;2023-06-10T01:12:26;14.50;99.90
37410;DHT22;23275;48.914;12.566;2023-06-10T01:14:54;14.50;99.90
37410;DHT22;23275;48.914;12.566;2023-06-10T01:17:20;14.50;99.90
37410;DHT22;23275;48.914;12.566;2023-06-10T01:19:56;14.50;99.90
37410;DHT22;23275;48.914;12.566;2023-06-10T01:22:23;14.50;99.90
37410;DHT22;23275;48.914;12.566;2023-06-10T01:24:49;14.50;99.90
37410;DHT22;23275;48.914;12.566;2023-06-10T01:27:19;14.50;99.90
37410;DHT22;23275;48.914;12.566;2023-06-10T01:29:52;14.40;99.90
37410;DHT22;23275;48.914;12.566;2023-06-10T01:32:32;14.40;99.90
37410;DHT22;23275;48.914;12.566;2023-06-10T01:34:59;14.40;99.90
37410;DHT22;23275;48.914;12.566;2023-06-10T01:37:26;14.40;99.90
37410;DHT22;23275;48.914;12.566;2023-06-10T01:39:55;14.40;99.90
37410;DHT22;23275;48.914;12.566;2023-06-10T01:42:21;14.50;99.90
37410;DHT22;23275;48.914;12.566;2023-06-10T01:44:47;14.50;99.90
37410;DHT22;23275;48.914;12.566;2023-06-10T01:47:13;14.50;99.90
37410;DHT22;23275;48.914;12.566;2023-06-10T01:49:38;14.50;99.90
37410;DHT22;23275;48.914;12.566;2023-06-10T01:52:04;14.50;99.90
37410;DHT22;23275;48.914;12.566;2023-06-10T01:54:30;14.50;99.90
37410;DHT22;23275;48.914;12.566;2023-06-10T01:56:55;14.50;99.90
37410;DHT22;23275;48.914;12.566;2023-06-10T01:59:21;14.40;99.90
37410;DHT22;23275;48.914;12.566;2023-06-10T02:01:46;14.40;99.90
37410;DHT22;23275;48.914;12.566;2023-06-10T02:04:12;14.40;99.90
37410;DHT22;23275;48.914;12.566;2023-06-10T02:06:37;14.40;99.90
37410;DHT22;23275;48.914;12.566;2023-06-10T02:09:03;14.40;99.90
37410;DHT22;23275;48.914;12.566;2023-06-10T02:11:29;14.30;99.90
37410;DHT22;23275;48.914;12.566;2023-06-10T02:13:55;14.30;99.90
37410;DHT22;23275;48.914;12.566;2023-06-10T02:16:20;14.30;99.90
37410;DHT22;23275;48.914;12.566;2023-06-10T02:18:46;14.30;99.90
37410;DHT22;23275;48.914;12.566;2023-06-10T02:21:12;14.30;99.90
37410;DHT22;23275;48.914;12.566;2023-06-10T02:23:38;14.30;99.90
37410;DHT22;23275;48.914;12.566;2023-06-10T02:26:04;14.20;99.90
37410;DHT22;23275;48.914;12.566;2023-06-10T02:28:29;14.20;99.90
37410;DHT22;23275;48.914;12.566;2023-06-10T02:30:55;14.20;99.90
37410;DHT22;23275;48.914;12.566;2023-06-10T02:33:22;14.10;99.90
37410;DHT22;23275;48.914;12.566;2023-06-10T02:35:48;14.20;99.90
37410;DHT22;23275;48.914;12.566;2023-06-10T02:38:14;14.20;99.90
37410;DHT22;23275;48.914;12.566;2023-06-10T02:40:39;14.10;99.90
37410;DHT22;23275;48.914;12.566;2023-06-10T02:43:05;14.10;99.90
37410;DHT22;23275;48.914;12.566;2023-06-10T02:45:30;14.10;99.90
37410;DHT22;23275;48.914;12.566;2023-06-10T02:47:56;14.00;99.90
37410;DHT22;23275;48.914;12.566;2023-06-10T02:50:22;14.00;99.90
37410;DHT22;23275;48.914;12.566;2023-06-10T02:52:48;14.00;99.90
37410;DHT22;23275;48.914;12.566;2023-06-10T02:55:13;14.00;99.90
37410;DHT22;23275;48.914;12.566;2023-06-10T02:57:39;14.00;99.90
37410;DHT22;23275;48.914;12.566;2023-06-10T03:00:05;14.00;99.90
37410;DHT22;23275;48.914;12.566;2023-06-10T03:02:37;14.00;99.90
37410;DHT22;23275;48.914;12.566;2023-06-10T03:05:04;13.90;99.90
37410;DHT22;23275;48.914;12.566;2023-06-10T03:07:30;13.80;99.90
37410;DHT22;23275;48.914;12.566;2023-06-10T03:09:56;13.80;99.90
37410;DHT22;23275;48.914;12.566;2023-06-10T03:12:22;13.70;99.90
37410;DHT22;23275;48.914;12.566;2023-06-10T03:14:48;13.70;99.90
37410;DHT22;23275;48.914;12.566;2023-06-10T03:17:13;13.70;99.90
37410;DHT22;23275;48.914;12.566;2023-06-10T03:19:39;13.70;99.90
37410;DHT22;23275;48.914;12.566;2023-06-10T03:22:12;13.80;99.90
37410;DHT22;23275;48.914;12.566;2023-06-10T03:24:38;13.80;99.90
37410;DHT22;23275;48.914;12.566;2023-06-10T03:27:07;13.80;99.90
37410;DHT22;23275;48.914;12.566;2023-06-10T03:29:33;13.90;99.90
37410;DHT22;23275;48.914;12.566;2023-06-10T03:31:58;13.80;99.90
37410;DHT22;23275;48.914;12.566;2023-06-10T03:34:24;13.70;99.90
37410;DHT22;23275;48.914;12.566;2023-06-10T03:36:49;13.70;99.90
37410;DHT22;23275;48.914;12.566;2023-06-10T03:39:16;13.70;99.90
37410;DHT22;23275;48.914;12.566;2023-06-10T03:41:41;13.80;99.90
37410;DHT22;23275;48.914;12.566;2023-06-10T03:44:07;13.80;99.90
37410;DHT22;23275;48.914;12.566;2023-06-10T03:46:32;13.80;99.90
37410;DHT22;23275;48.914;12.566;2023-06-10T03:48:58;13.80;99.90
37410;DHT22;23275;48.914;12.566;2023-06-10T03:51:26;13.80;99.90
37410;DHT22;23275;48.914;12.566;2023-06-10T03:53:51;13.80;99.90
37410;DHT22;23275;48.914;12.566;2023-06-10T03:56:17;13.80;99.90
37410;DHT22;23275;48.914;12.566;2023-06-10T03:58:42;13.80;99.90
37410;DHT22;23275;48.914;12.566;2023-06-10T04:01:08;13.90;99.90
37410;DHT22;23275;48.914;12.566;2023-06-10T04:03:34;14.00;99.90
37410;DHT22;23275;48.914;12.566;2023-06-10T04:05:59;14.10;99.90
37410;DHT22;23275;48.914;12.566;2023-06-10T04:08:25;14.20;99.90
37410;DHT22;23275;48.914;12.566;2023-06-10T04:10:51;14.20;99.90
37410;DHT22;23275;48.914;12.566;2023-06-10T04:13:16;14.20;99.90
37410;DHT22;23275;48.914;12.566;2023-06-10T04:15:42;14.20;99.90
37410;DHT22;23275;48.914;12.566;2023-06-10T04:18:08;14.30;99.90
37410;DHT22;23275;48.914;12.566;2023-06-10T04:20:33;14.30;99.90
37410;DHT22;23275;48.914;12.566;2023-06-10T04:22:59;14.40;99.90
37410;DHT22;23275;48.914;12.566;2023-06-10T04:25:25;14.50;99.90
37410;DHT22;23275;48.914;12.566;2023-06-10T04:27:51;14.50;99.90
37410;DHT22;23275;48.914;12.566;2023-06-10T04:30:17;14.50;99.90
37410;DHT22;23275;48.914;12.566;2023-06-10T04:32:43;14.60;99.90
37410;DHT22;23275;48.914;12.566;2023-06-10T04:35:11;14.70;99.90
37410;DHT22;23275;48.914;12.566;2023-06-10T04:37:38;14.70;99.90
37410;DHT22;23275;48.914;12.566;2023-06-10T04:40:04;14.90;99.90
37410;DHT22;23275;48.914;12.566;2023-06-10T04:42:30;15.00;99.90
37410;DHT22;23275;48.914;12.566;2023-06-10T04:44:55;15.20;99.90
37410;DHT22;23275;48.914;12.566;2023-06-10T04:47:21;15.50;99.90
37410;DHT22;23275;48.914;12.566;2023-06-10T04:49:46;15.70;99.90
37410;DHT22;23275;48.914;12.566;2023-06-10T04:52:12;16.00;99.90
37410;DHT22;23275;48.914;12.566;2023-06-10T04:54:39;16.20;99.90
37410;DHT22;23275;48.914;12.566;2023-06-10T04:57:06;16.50;99.90
37410;DHT22;23275;48.914;12.566;2023-06-10T04:59:33;16.70;99.90
37410;DHT22;23275;48.914;12.566;2023-06-10T05:01:58;16.80;99.90
37410;DHT22;23275;48.914;12.566;2023-06-10T05:04:24;17.00;99.90
37410;DHT22;23275;48.914;12.566;2023-06-10T05:06:50;17.20;99.90
37410;DHT22;23275;48.914;12.566;2023-06-10T05:09:15;17.40;99.90
37410;DHT22;23275;48.914;12.566;2023-06-10T05:11:41;17.60;99.90
37410;DHT22;23275;48.914;12.566;2023-06-10T05:14:06;17.80;99.90
37410;DHT22;23275;48.914;12.566;2023-06-10T05:16:32;18.00;99.90
37410;DHT22;23275;48.914;12.566;2023-06-10T05:18:58;18.20;99.90
37410;DHT22;23275;48.914;12.566;2023-06-10T05:21:23;18.40;99.90
37410;DHT22;23275;48.914;12.566;2023-06-10T05:23:49;18.50;99.90
37410;DHT22;23275;48.914;12.566;2023-06-10T05:26:15;18.50;99.90
37410;DHT22;23275;48.914;12.566;2023-06-10T05:28:41;18.40;99.90
37410;DHT22;23275;48.914;12.566;2023-06-10T05:31:07;18.40;99.90
37410;DHT22;23275;48.914;12.566;2023-06-10T05:33:32;18.50;99.90
37410;DHT22;23275;48.914;12.566;2023-06-10T05:35:58;18.30;99.90
37410;DHT22;23275;48.914;12.566;2023-06-10T05:38:23;18.10;99.90
37410;DHT22;23275;48.914;12.566;2023-06-10T05:40:49;18.20;99.90
37410;DHT22;23275;48.914;12.566;2023-06-10T05:43:14;18.20;99.90
37410;DHT22;23275;48.914;12.566;2023-06-10T05:45:42;18.30;99.90
37410;DHT22;23275;48.914;12.566;2023-06-10T05:48:07;18.50;99.90
37410;DHT22;23275;48.914;12.566;2023-06-10T05:50:34;18.70;99.90
37410;DHT22;23275;48.914;12.566;2023-06-10T05:53:04;19.00;99.90
37410;DHT22;23275;48.914;12.566;2023-06-10T05:55:32;19.10;99.90
37410;DHT22;23275;48.914;12.566;2023-06-10T05:58:01;19.20;99.90
37410;DHT22;23275;48.914;12.566;2023-06-10T06:00:26;19.50;99.90
37410;DHT22;23275;48.914;12.566;2023-06-10T06:02:52;19.70;99.90
37410;DHT22;23275;48.914;12.566;2023-06-10T06:05:19;20.10;99.90
37410;DHT22;23275;48.914;12.566;2023-06-10T06:07:45;20.40;99.90
37410;DHT22;23275;48.914;12.566;2023-06-10T06:10:10;20.50;99.90
37410;DHT22;23275;48.914;12.566;2023-06-10T06:12:36;20.80;99.90
37410;DHT22;23275;48.914;12.566;2023-06-10T06:15:02;21.00;99.90
37410;DHT22;23275;48.914;12.566;2023-06-10T06:17:27;21.20;99.90
37410;DHT22;23275;48.914;12.566;2023-06-10T06:19:53;21.40;99.90
37410;DHT22;23275;48.914;12.566;2023-06-10T06:22:19;21.60;99.90
37410;DHT22;23275;48.914;12.566;2023-06-10T06:24:47;21.80;99.90
37410;DHT22;23275;48.914;12.566;2023-06-10T06:27:12;21.90;99.90
37410;DHT22;23275;48.914;12.566;2023-06-10T06:29:38;22.00;99.90
37410;DHT22;23275;48.914;12.566;2023-06-10T06:32:04;22.10;99.90
37410;DHT22;23275;48.914;12.566;2023-06-10T06:34:29;22.20;99.90
37410;DHT22;23275;48.914;12.566;2023-06-10T06:36:55;22.30;99.90
37410;DHT22;23275;48.914;12.566;2023-06-10T06:39:21;22.40;99.90
37410;DHT22;23275;48.914;12.566;2023-06-10T06:41:46;22.30;99.90
37410;DHT22;23275;48.914;12.566;2023-06-10T06:44:12;22.20;99.90
37410;DHT22;23275;48.914;12.566;2023-06-10T06:46:37;21.90;99.90
37410;DHT22;23275;48.914;12.566;2023-06-10T06:49:03;21.80;99.90
37410;DHT22;23275;48.914;12.566;2023-06-10T06:51:28;21.70;99.90
37410;DHT22;23275;48.914;12.566;2023-06-10T06:53:54;21.60;99.90
37410;DHT22;23275;48.914;12.566;2023-06-10T06:56:22;21.50;99.90
37410;DHT22;23275;48.914;12.566;2023-06-10T06:58:47;21.50;99.90
37410;DHT22;23275;48.914;12.566;2023-06-10T07:01:13;21.50;99.90
37410;DHT22;23275;48.914;12.566;2023-06-10T07:03:39;21.40;99.90
37410;DHT22;23275;48.914;12.566;2023-06-10T07:06:04;21.30;99.90
37410;DHT22;23275;48.914;12.566;2023-06-10T07:08:30;21.20;99.90
37410;DHT22;23275;48.914;12.566;2023-06-10T07:10:56;21.10;99.90
37410;DHT22;23275;48.914;12.566;2023-06-10T07:13:21;21.00;99.90
37410;DHT22;23275;48.914;12.566;2023-06-10T07:15:47;20.90;99.90
37410;DHT22;23275;48.914;12.566;2023-06-10T07:18:14;20.80;99.90
37410;DHT22;23275;48.914;12.566;2023-06-10T07:20:40;20.70;99.90
37410;DHT22;23275;48.914;12.566;2023-06-10T07:23:06;20.70;99.90
37410;DHT22;23275;48.914;12.566;2023-06-10T07:25:32;20.70;99.90
37410;DHT22;23275;48.914;12.566;2023-06-10T07:27:59;20.80;99.90
37410;DHT22;23275;48.914;12.566;2023-06-10T07:30:24;21.00;99.90
37410;DHT22;23275;48.914;12.566;2023-06-10T07:32:51;21.40;99.90
37410;DHT22;23275;48.914;12.566;2023-06-10T07:35:17;21.60;99.90
37410;DHT22;23275;48.914;12.566;2023-06-10T07:37:42;21.80;99.90
37410;DHT22;23275;48.914;12.566;2023-06-10T07:40:08;22.00;99.90
37410;DHT22;23275;48.914;12.566;2023-06-10T07:42:35;22.40;99.90
37410;DHT22;23275;48.914;12.566;2023-06-10T07:45:04;22.70;99.90
37410;DHT22;23275;48.914;12.566;2023-06-10T07:47:32;22.80;99.90
37410;DHT22;23275;48.914;12.566;2023-06-10T07:49:58;22.90;99.90
37410;DHT22;23275;48.914;12.566;2023-06-10T07:52:24;22.80;99.90
37410;DHT22;23275;48.914;12.566;2023-06-10T07:54:51;22.90;99.90
37410;DHT22;23275;48.914;12.566;2023-06-10T07:57:18;23.20;99.90
37410;DHT22;23275;48.914;12.566;2023-06-10T07:59:44;23.60;99.90
37410;DHT22;23275;48.914;12.566;2023-06-10T08:02:10;24.10;99.90
37410;DHT22;23275;48.914;12.566;2023-06-10T08:04:35;24.40;99.90
37410;DHT22;23275;48.914;12.566;2023-06-10T08:07:01;24.90;99.90
37410;DHT22;23275;48.914;12.566;2023-06-10T08:09:27;25.30;99.90
37410;DHT22;23275;48.914;12.566;2023-06-10T08:11:53;25.10;99.90
37410;DHT22;23275;48.914;12.566;2023-06-10T08:14:19;25.00;99.90
37410;DHT22;23275;48.914;12.566;2023-06-10T08:16:44;24.70;99.90
37410;DHT22;23275;48.914;12.566;2023-06-10T08:19:11;24.40;99.90
37410;DHT22;23275;48.914;12.566;2023-06-10T08:21:36;24.10;99.90
37410;DHT22;23275;48.914;12.566;2023-06-10T08:24:03;23.80;99.90
37410;DHT22;23275;48.914;12.566;2023-06-10T08:26:28;23.50;99.90
37410;DHT22;23275;48.914;12.566;2023-06-10T08:28:54;23.30;99.90
37410;DHT22;23275;48.914;12.566;2023-06-10T08:31:20;23.10;99.90
37410;DHT22;23275;48.914;12.566;2023-06-10T08:33:46;23.00;99.90
37410;DHT22;23275;48.914;12.566;2023-06-10T08:36:12;23.00;99.90
37410;DHT22;23275;48.914;12.566;2023-06-10T08:38:38;22.80;99.90
37410;DHT22;23275;48.914;12.566;2023-06-10T08:41:05;22.80;99.90
37410;DHT22;23275;48.914;12.566;2023-06-10T08:43:42;22.70;99.90
37410;DHT22;23275;48.914;12.566;2023-06-10T08:46:09;22.70;99.90
37410;DHT22;23275;48.914;12.566;2023-06-10T08:48:42;22.50;99.90
37410;DHT22;23275;48.914;12.566;2023-06-10T08:51:10;22.40;99.90
37410;DHT22;23275;48.914;12.566;2023-06-10T08:53:38;22.30;99.90
37410;DHT22;23275;48.914;12.566;2023-06-10T08:56:09;22.50;99.90
37410;DHT22;23275;48.914;12.566;2023-06-10T08:58:35;22.70;99.90
37410;DHT22;23275;48.914;12.566;2023-06-10T09:01:07;22.90;99.90
37410;DHT22;23275;48.914;12.566;2023-06-10T09:03:36;23.10;99.90
37410;DHT22;23275;48.914;12.566;2023-06-10T09:06:04;23.10;99.90
37410;DHT22;23275;48.914;12.566;2023-06-10T09:08:30;23.10;99.90
37410;DHT22;23275;48.914;12.566;2023-06-10T09:10:57;23.20;99.90
37410;DHT22;23275;48.914;12.566;2023-06-10T09:13:22;23.20;99.90
37410;DHT22;23275;48.914;12.566;2023-06-10T09:15:48;23.20;99.90
37410;DHT22;23275;48.914;12.566;2023-06-10T09:18:14;23.20;99.90
37410;DHT22;23275;48.914;12.566;2023-06-10T09:20:42;23.20;99.90
37410;DHT22;23275;48.914;12.566;2023-06-10T09:23:08;23.20;99.90
37410;DHT22;23275;48.914;12.566;2023-06-10T09:25:38;23.30;99.90
37410;DHT22;23275;48.914;12.566;2023-06-10T09:28:05;23.70;99.90
37410;DHT22;23275;48.914;12.566;2023-06-10T09:30:37;24.20;99.90
37410;DHT22;23275;48.914;12.566;2023-06-10T09:33:10;24.60;99.90
37410;DHT22;23275;48.914;12.566;2023-06-10T09:35:36;24.80;99.90
37410;DHT22;23275;48.914;12.566;2023-06-10T09:38:02;25.00;99.90
37410;DHT22;23275;48.914;12.566;2023-06-10T09:40:30;25.10;99.90
37410;DHT22;23275;48.914;12.566;2023-06-10T09:42:58;25.10;99.90
37410;DHT22;23275;48.914;12.566;2023-06-10T09:45:30;25.50;99.90
37410;DHT22;23275;48.914;12.566;2023-06-10T09:47:59;25.90;99.90
37410;DHT22;23275;48.914;12.566;2023-06-10T09:50:24;26.40;99.90
37410;DHT22;23275;48.914;12.566;2023-06-10T09:52:50;26.90;99.90
37410;DHT22;23275;48.914;12.566;2023-06-10T09:55:17;27.30;99.90
37410;DHT22;23275;48.914;12.566;2023-06-10T09:57:43;27.80;99.90
37410;DHT22;23275;48.914;12.566;2023-06-10T10:00:13;27.90;99.90
37410;DHT22;23275;48.914;12.566;2023-06-10T10:02:50;28.30;99.90
37410;DHT22;23275;48.914;12.566;2023-06-10T10:05:20;28.60;99.90
37410;DHT22;23275;48.914;12.566;2023-06-10T10:07:46;28.70;99.90
37410;DHT22;23275;48.914;12.566;2023-06-10T10:10:13;29.10;99.90
37410;DHT22;23275;48.914;12.566;2023-06-10T10:12:40;29.40;96.40
37410;DHT22;23275;48.914;12.566;2023-06-10T10:15:11;29.30;97.10
37410;DHT22;23275;48.914;12.566;2023-06-10T10:17:49;28.90;99.20
37410;DHT22;23275;48.914;12.566;2023-06-10T10:20:20;28.10;99.40
37410;DHT22;23275;48.914;12.566;2023-06-10T10:22:49;27.30;99.90
37410;DHT22;23275;48.914;12.566;2023-06-10T10:25:23;26.80;99.90
37410;DHT22;23275;48.914;12.566;2023-06-10T10:27:51;26.60;99.90
37410;DHT22;23275;48.914;12.566;2023-06-10T10:30:17;27.50;99.90
37410;DHT22;23275;48.914;12.566;2023-06-10T10:35:20;29.00;99.30
37410;DHT22;23275;48.914;12.566;2023-06-10T10:37:52;28.90;98.50
37410;DHT22;23275;48.914;12.566;2023-06-10T10:40:18;28.60;96.80
37410;DHT22;23275;48.914;12.566;2023-06-10T10:42:44;28.20;99.90
37410;DHT22;23275;48.914;12.566;2023-06-10T10:45:10;27.60;99.90
37410;DHT22;23275;48.914;12.566;2023-06-10T10:47:37;27.40;99.90
37410;DHT22;23275;48.914;12.566;2023-06-10T10:50:16;27.10;99.90
37410;DHT22;23275;48.914;12.566;2023-06-10T10:52:55;26.60;99.90
37410;DHT22;23275;48.914;12.566;2023-06-10T10:55:24;26.20;99.90
37410;DHT22;23275;48.914;12.566;2023-06-10T10:58:07;25.90;99.90
37410;DHT22;23275;48.914;12.566;2023-06-10T11:00:38;25.60;99.90
37410;DHT22;23275;48.914;12.566;2023-06-10T11:03:13;25.40;99.90
37410;DHT22;23275;48.914;12.566;2023-06-10T11:05:43;25.00;99.90
37410;DHT22;23275;48.914;12.566;2023-06-10T11:08:10;24.80;99.90
37410;DHT22;23275;48.914;12.566;2023-06-10T11:10:38;24.60;99.90
37410;DHT22;23275;48.914;12.566;2023-06-10T11:13:08;24.60;99.90
37410;DHT22;23275;48.914;12.566;2023-06-10T11:15:39;24.70;99.90
37410;DHT22;23275;48.914;12.566;2023-06-10T11:20:52;24.70;99.90
37410;DHT22;23275;48.914;12.566;2023-06-10T11:31:31;24.60;99.90
37410;DHT22;23275;48.914;12.566;2023-06-10T11:34:00;24.70;99.90
37410;DHT22;23275;48.914;12.566;2023-06-10T11:36:27;24.80;99.90
37410;DHT22;23275;48.914;12.566;2023-06-10T11:38:57;25.00;99.90
37410;DHT22;23275;48.914;12.566;2023-06-10T11:41:24;25.00;99.90
37410;DHT22;23275;48.914;12.566;2023-06-10T11:43:53;25.30;99.90
37410;DHT22;23275;48.914;12.566;2023-06-10T11:46:22;25.50;99.90
37410;DHT22;23275;48.914;12.566;2023-06-10T11:48:58;25.80;99.90
37410;DHT22;23275;48.914;12.566;2023-06-10T11:51:34;26.00;99.90
37410;DHT22;23275;48.914;12.566;2023-06-10T11:54:00;26.10;99.90
37410;DHT22;23275;48.914;12.566;2023-06-10T11:56:27;26.40;99.90
37410;DHT22;23275;48.914;12.566;2023-06-10T11:58:56;26.50;99.90
37410;DHT22;23275;48.914;12.566;2023-06-10T12:01:24;26.50;99.90
37410;DHT22;23275;48.914;12.566;2023-06-10T12:04:03;26.60;99.90
37410;DHT22;23275;48.914;12.566;2023-06-10T12:09:15;27.30;99.90
37410;DHT22;23275;48.914;12.566;2023-06-10T12:11:42;27.40;99.90
37410;DHT22;23275;48.914;12.566;2023-06-10T12:14:09;27.30;99.90
37410;DHT22;23275;48.914;12.566;2023-06-10T12:16:34;27.20;99.90
37410;DHT22;23275;48.914;12.566;2023-06-10T12:19:04;26.90;99.90
37410;DHT22;23275;48.914;12.566;2023-06-10T12:21:32;26.80;99.90
37410;DHT22;23275;48.914;12.566;2023-06-10T12:24:06;26.60;99.90
37410;DHT22;23275;48.914;12.566;2023-06-10T12:26:42;26.50;99.90
37410;DHT22;23275;48.914;12.566;2023-06-10T12:29:22;26.30;99.90
37410;DHT22;23275;48.914;12.566;2023-06-10T12:31:58;26.00;99.90
37410;DHT22;23275;48.914;12.566;2023-06-10T12:34:35;26.00;99.90
37410;DHT22;23275;48.914;12.566;2023-06-10T12:37:02;25.70;99.90
37410;DHT22;23275;48.914;12.566;2023-06-10T12:39:32;25.50;99.90
37410;DHT22;23275;48.914;12.566;2023-06-10T12:41:59;25.20;99.90
37410;DHT22;23275;48.914;12.566;2023-06-10T12:44:35;25.00;99.90
37410;DHT22;23275;48.914;12.566;2023-06-10T12:47:07;25.00;99.90
37410;DHT22;23275;48.914;12.566;2023-06-10T12:49:34;25.00;99.90
37410;DHT22;23275;48.914;12.566;2023-06-10T12:52:00;25.30;99.90
37410;DHT22;23275;48.914;12.566;2023-06-10T12:54:26;25.70;99.90
37410;DHT22;23275;48.914;12.566;2023-06-10T12:56:52;25.90;99.90
37410;DHT22;23275;48.914;12.566;2023-06-10T12:59:18;25.90;99.90
37410;DHT22;23275;48.914;12.566;2023-06-10T13:01:49;25.80;99.90
37410;DHT22;23275;48.914;12.566;2023-06-10T13:04:16;25.80;99.90
37410;DHT22;23275;48.914;12.566;2023-06-10T13:06:42;25.90;99.90
37410;DHT22;23275;48.914;12.566;2023-06-10T13:09:08;26.00;99.90
37410;DHT22;23275;48.914;12.566;2023-06-10T13:11:33;25.90;99.90
37410;DHT22;23275;48.914;12.566;2023-06-10T13:13:59;25.80;99.90
37410;DHT22;23275;48.914;12.566;2023-06-10T13:16:25;26.00;99.90
37410;DHT22;23275;48.914;12.566;2023-06-10T13:18:52;26.10;99.90
37410;DHT22;23275;48.914;12.566;2023-06-10T13:21:17;25.90;99.90
37410;DHT22;23275;48.914;12.566;2023-06-10T13:23:44;25.60;99.90
37410;DHT22;23275;48.914;12.566;2023-06-10T13:26:13;25.10;99.90
37410;DHT22;23275;48.914;12.566;2023-06-10T13:28:38;24.70;99.90
37410;DHT22;23275;48.914;12.566;2023-06-10T13:31:04;24.30;99.90
37410;DHT22;23275;48.914;12.566;2023-06-10T13:33:29;23.80;99.90
37410;DHT22;23275;48.914;12.566;2023-06-10T13:35:55;23.30;99.90
37410;DHT22;23275;48.914;12.566;2023-06-10T13:38:20;23.20;99.90
37410;DHT22;23275;48.914;12.566;2023-06-10T13:40:46;23.20;99.90
37410;DHT22;23275;48.914;12.566;2023-06-10T13:43:12;23.20;99.90
37410;DHT22;23275;48.914;12.566;2023-06-10T13:45:38;23.20;99.90
37410;DHT22;23275;48.914;12.566;2023-06-10T13:48:04;23.10;99.90
37410;DHT22;23275;48.914;12.566;2023-06-10T13:50:31;23.00;99.90
37410;DHT22;23275;48.914;12.566;2023-06-10T13:52:57;22.80;99.90
37410;DHT22;23275;48.914;12.566;2023-06-10T13:55:22;22.60;99.90
37410;DHT22;23275;48.914;12.566;2023-06-10T13:57:50;22.50;99.90
37410;DHT22;23275;48.914;12.566;2023-06-10T14:00:16;22.10;99.90
37410;DHT22;23275;48.914;12.566;2023-06-10T14:02:42;21.40;99.90
37410;DHT22;23275;48.914;12.566;2023-06-10T14:05:07;21.00;99.90
37410;DHT22;23275;48.914;12.566;2023-06-10T14:07:34;20.70;99.90
37410;DHT22;23275;48.914;12.566;2023-06-10T14:09:59;20.60;99.90
37410;DHT22;23275;48.914;12.566;2023-06-10T14:12:25;20.30;99.90
37410;DHT22;23275;48.914;12.566;2023-06-10T14:14:51;20.20;99.90
37410;DHT22;23275;48.914;12.566;2023-06-10T14:17:17;20.20;99.90
37410;DHT22;23275;48.914;12.566;2023-06-10T14:19:42;20.20;99.90
37410;DHT22;23275;48.914;12.566;2023-06-10T14:22:08;20.20;99.90
37410;DHT22;23275;48.914;12.566;2023-06-10T14:24:34;20.30;99.90
37410;DHT22;23275;48.914;12.566;2023-06-10T14:27:00;20.40;99.90
37410;DHT22;23275;48.914;12.566;2023-06-10T14:29:26;20.40;99.90
37410;DHT22;23275;48.914;12.566;2023-06-10T14:31:57;20.50;99.90
37410;DHT22;23275;48.914;12.566;2023-06-10T14:34:22;20.50;99.90
37410;DHT22;23275;48.914;12.566;2023-06-10T14:36:54;20.50;99.90
37410;DHT22;23275;48.914;12.566;2023-06-10T14:39:19;20.60;99.90
37410;DHT22;23275;48.914;12.566;2023-06-10T14:41:45;20.60;99.90
37410;DHT22;23275;48.914;12.566;2023-06-10T14:44:10;20.70;99.90
37410;DHT22;23275;48.914;12.566;2023-06-10T14:46:36;20.70;99.90
37410;DHT22;23275;48.914;12.566;2023-06-10T14:49:01;20.80;99.90
37410;DHT22;23275;48.914;12.566;2023-06-10T14:51:28;20.80;99.90
37410;DHT22;23275;48.914;12.566;2023-06-10T14:53:53;20.80;99.90
37410;DHT22;23275;48.914;12.566;2023-06-10T14:56:19;20.80;99.90
37410;DHT22;23275;48.914;12.566;2023-06-10T14:58:44;20.80;99.90
37410;DHT22;23275;48.914;12.566;2023-06-10T15:01:10;20.80;99.90
37410;DHT22;23275;48.914;12.566;2023-06-10T15:03:35;20.70;99.90
37410;DHT22;23275;48.914;12.566;2023-06-10T15:06:01;20.60;99.90
37410;DHT22;23275;48.914;12.566;2023-06-10T15:08:26;20.60;99.90
37410;DHT22;23275;48.914;12.566;2023-06-10T15:10:53;20.70;99.90
37410;DHT22;23275;48.914;12.566;2023-06-10T15:13:19;20.80;99.90
37410;DHT22;23275;48.914;12.566;2023-06-10T15:15:45;21.00;99.90
37410;DHT22;23275;48.914;12.566;2023-06-10T15:18:11;21.00;99.90
37410;DHT22;23275;48.914;12.566;2023-06-10T15:20:36;21.10;99.90
37410;DHT22;23275;48.914;12.566;2023-06-10T15:23:02;21.20;99.90
37410;DHT22;23275;48.914;12.566;2023-06-10T15:25:27;21.20;99.90
37410;DHT22;23275;48.914;12.566;2023-06-10T15:27:53;21.20;99.90
37410;DHT22;23275;48.914;12.566;2023-06-10T15:30:18;21.10;99.90
37410;DHT22;23275;48.914;12.566;2023-06-10T15:32:44;21.10;99.90
37410;DHT22;23275;48.914;12.566;2023-06-10T15:35:10;21.00;99.90